Time;durP1;ratioP1;P1;durP2;ratioP2;P2;SDS_P1;SDS_P2;PMS_P1;PMS_P2;Temp;Humidity;BMP_temperature;BMP_pressure;BME280_temperature;BME280_humidity;BME280_pressure;Samples;Min_cycle;Max_cycle;Signal;HPM_P1;HPM_P2
2023/05/01 00:00:09;;;;;;;11.37;6.03;;;10.10;99.90;;;;;;4964924;28;20054;-85
2023/05/01 00:02:36;;;;;;;10.70;6.10;;;10.10;99.90;;;;;;4981313;28;20086;-85
2023/05/01 00:05:02;;;;;;;11.93;5.57;;;10.10;99.90;;;;;;4979043;28;20293;-85
2023/05/01 00:07:29;;;;;;;9.80;5.20;;;10.10;99.90;;;;;;4977431;28;20282;-85
2023/05/01 00:09:56;;;;;;;8.90;5.00;;;10.00;99.90;;;;;;4977491;28;20282;-84
2023/05/01 00:12:23;;;;;;;7.83;5.10;;;10.00;99.90;;;;;;4976069;28;20793;-84
2023/05/01 00:14:49;;;;;;;11.20;6.10;;;10.00;99.90;;;;;;4977242;28;20287;-85
2023/05/01 00:17:15;;;;;;;12.60;5.77;;;9.90;99.90;;;;;;4960694;28;20580;-85
2023/05/01 00:19:41;;;;;;;10.23;6.03;;;9.90;99.90;;;;;;4976423;28;20305;-85
2023/05/01 00:22:06;;;;;;;12.70;5.60;;;9.90;99.90;;;;;;4977178;28;20281;-85
2023/05/01 00:24:32;;;;;;;9.63;5.70;;;9.90;99.90;;;;;;4976384;28;20133;-85
2023/05/01 00:26:58;;;;;;;10.80;5.73;;;9.80;99.90;;;;;;4976060;28;20050;-84
2023/05/01 00:29:24;;;;;;;12.50;6.10;;;9.80;99.90;;;;;;4975995;28;20291;-84
2023/05/01 00:31:50;;;;;;;12.53;5.17;;;9.80;99.90;;;;;;4976108;28;20055;-84
2023/05/01 00:34:16;;;;;;;8.80;5.40;;;9.80;99.90;;;;;;4976983;28;20086;-84
2023/05/01 00:36:41;;;;;;;10.10;5.73;;;9.80;99.90;;;;;;4976878;28;20129;-84
2023/05/01 00:39:07;;;;;;;10.50;5.40;;;9.80;99.90;;;;;;4976812;28;20130;-84
2023/05/01 00:41:34;;;;;;;12.43;5.60;;;9.80;99.90;;;;;;4975792;28;20082;-84
2023/05/01 00:43:59;;;;;;;10.47;5.10;;;9.80;99.90;;;;;;4976539;28;20380;-84
2023/05/01 00:46:26;;;;;;;10.40;5.27;;;9.70;99.90;;;;;;4976162;28;20293;-84
2023/05/01 00:48:52;;;;;;;12.20;5.97;;;9.70;99.90;;;;;;4975996;28;20059;-84
2023/05/01 00:51:20;;;;;;;9.27;5.07;;;9.70;99.90;;;;;;4976919;28;20282;-84
2023/05/01 00:53:45;;;;;;;8.03;5.37;;;9.70;99.90;;;;;;4976552;28;20050;-84
2023/05/01 00:56:12;;;;;;;15.87;5.80;;;9.70;99.90;;;;;;4977246;28;20290;-84
2023/05/01 00:58:39;;;;;;;11.00;5.37;;;9.70;99.90;;;;;;4975655;28;20047;-84
2023/05/01 01:01:04;;;;;;;8.93;5.43;;;9.60;99.90;;;;;;4975391;28;20309;-84
2023/05/01 01:03:30;;;;;;;9.07;5.10;;;9.60;99.90;;;;;;4975356;28;20294;-85
2023/05/01 01:06:16;;;;;;;7.93;4.60;;;9.60;99.90;;;;;;4976869;28;20471;-85
2023/05/01 01:08:58;;;;;;;;;;;9.60;99.90;;;;;;4977558;28;20121;-84
2023/05/01 01:11:32;;;;;;;9.67;5.13;;;9.60;99.90;;;;;;4976080;28;19945;-84
2023/05/01 01:14:13;;;;;;;9.33;5.20;;;9.50;99.90;;;;;;4975056;28;20369;-84
2023/05/01 01:16:53;;;;;;;9.80;5.30;;;9.60;99.90;;;;;;4976916;28;20282;-85
2023/05/01 01:19:32;;;;;;;8.87;4.90;;;9.60;99.90;;;;;;4976798;28;20364;-84
2023/05/01 01:22:08;;;;;;;11.50;4.73;;;9.50;99.90;;;;;;4975386;28;20294;-84
2023/05/01 01:25:05;;;;;;;9.80;5.43;;;9.50;99.90;;;;;;4975997;28;20368;-84
2023/05/01 01:28:08;;;;;;;9.97;5.40;;;9.50;99.90;;;;;;4974882;28;20294;-85
2023/05/01 01:30:57;;;;;;;8.63;5.00;;;9.50;99.90;;;;;;4959060;28;20298;-85
2023/05/01 01:33:42;;;;;;;8.53;4.80;;;9.30;99.90;;;;;;4975152;28;20290;-85
2023/05/01 01:36:14;;;;;;;8.67;4.53;;;9.30;99.90;;;;;;4958416;28;20291;-84
2023/05/01 01:39:03;;;;;;;7.87;4.70;;;9.30;99.90;;;;;;4975453;28;20305;-84
2023/05/01 01:41:32;;;;;;;9.83;5.13;;;9.30;99.90;;;;;;4975922;28;20278;-84
2023/05/01 01:44:08;;;;;;;15.20;4.80;;;9.30;99.90;;;;;;4975617;28;20285;-84
2023/05/01 01:46:38;;;;;;;9.63;4.90;;;9.20;99.90;;;;;;4975852;28;20274;-84
2023/05/01 01:49:12;;;;;;;9.67;4.73;;;9.20;99.90;;;;;;4974886;28;20289;-84
2023/05/01 01:51:40;;;;;;;8.10;4.47;;;9.20;99.90;;;;;;4974379;28;20614;-84
2023/05/01 01:54:08;;;;;;;12.10;4.57;;;9.20;99.90;;;;;;4974504;28;20290;-84
2023/05/01 01:56:36;;;;;;;9.37;4.87;;;9.20;99.90;;;;;;4975376;28;20300;-85
2023/05/01 01:59:04;;;;;;;9.73;4.63;;;9.20;99.90;;;;;;4958161;28;20429;-85
2023/05/01 02:01:33;;;;;;;9.43;5.10;;;9.10;99.90;;;;;;4974639;28;20287;-85
2023/05/01 02:04:00;;;;;;;8.53;4.70;;;9.20;99.90;;;;;;4974212;28;20277;-84
2023/05/01 02:06:27;;;;;;;8.87;4.70;;;9.10;99.90;;;;;;4958232;28;20334;-85
2023/05/01 02:08:54;;;;;;;10.93;5.20;;;9.10;99.90;;;;;;4958073;28;20287;-85
2023/05/01 02:11:21;;;;;;;8.00;4.83;;;9.10;99.90;;;;;;4958309;28;20290;-85
2023/05/01 02:13:48;;;;;;;6.87;4.87;;;9.10;99.90;;;;;;4958958;28;20658;-85
2023/05/01 02:16:15;;;;;;;8.67;4.77;;;9.00;99.90;;;;;;4975118;28;20294;-85
2023/05/01 02:18:45;;;;;;;9.20;5.00;;;9.00;99.90;;;;;;4975546;28;20678;-85
2023/05/01 02:21:12;;;;;;;11.70;4.63;;;9.00;99.90;;;;;;4975053;28;20293;-85
2023/05/01 02:23:38;;;;;;;7.57;4.33;;;9.00;99.90;;;;;;4975042;28;20282;-84
2023/05/01 02:26:05;;;;;;;11.07;5.07;;;8.90;99.90;;;;;;4973859;28;20361;-84
2023/05/01 02:28:33;;;;;;;7.83;5.30;;;9.00;99.90;;;;;;4973772;28;20365;-84
2023/05/01 02:30:59;;;;;;;9.17;5.27;;;8.90;99.90;;;;;;4974217;28;20290;-84
2023/05/01 02:33:24;;;;;;;8.30;5.00;;;8.90;99.90;;;;;;4973954;28;20290;-84
2023/05/01 02:35:50;;;;;;;6.77;4.00;;;8.90;99.90;;;;;;4975378;28;20455;-84
2023/05/01 02:38:16;;;;;;;9.97;5.20;;;8.90;99.90;;;;;;4974006;28;20054;-84
2023/05/01 02:40:55;;;;;;;8.30;4.93;;;8.90;99.90;;;;;;4973770;28;20057;-85
2023/05/01 02:43:23;;;;;;;9.83;4.90;;;8.90;99.90;;;;;;4973636;28;20113;-84
2023/05/01 02:45:51;;;;;;;9.67;4.80;;;8.90;99.90;;;;;;4973803;28;20329;-84
2023/05/01 02:48:22;;;;;;;9.67;4.30;;;8.90;99.90;;;;;;4973756;28;20290;-84
2023/05/01 02:50:49;;;;;;;7.27;4.83;;;8.90;99.90;;;;;;4974621;28;20291;-84
2023/05/01 02:53:15;;;;;;;9.93;4.73;;;8.90;99.90;;;;;;4974725;28;20322;-85
2023/05/01 02:55:42;;;;;;;9.40;4.77;;;8.90;99.90;;;;;;4973720;28;20630;-85
2023/05/01 02:58:07;;;;;;;13.13;5.47;;;8.90;99.90;;;;;;4973143;28;20289;-86
2023/05/01 03:00:34;;;;;;;11.13;4.83;;;8.90;99.90;;;;;;4958081;28;20310;-85
2023/05/01 03:03:00;;;;;;;9.33;4.77;;;8.90;99.90;;;;;;4974142;28;20058;-85
2023/05/01 03:05:26;;;;;;;10.07;4.80;;;8.80;99.90;;;;;;4973954;28;20286;-85
2023/05/01 03:07:52;;;;;;;10.13;4.70;;;8.80;99.90;;;;;;4973576;28;20145;-85
2023/05/01 03:10:17;;;;;;;8.97;4.33;;;8.80;99.90;;;;;;4963471;28;20290;-84
2023/05/01 03:12:43;;;;;;;11.37;5.07;;;8.80;99.90;;;;;;4963704;28;20470;-83
2023/05/01 03:15:11;;;;;;;13.00;4.67;;;8.80;99.90;;;;;;4981959;28;20057;-85
2023/05/01 03:17:37;;;;;;;9.80;4.90;;;8.80;99.90;;;;;;4978031;28;20190;-86
2023/05/01 03:20:05;;;;;;;8.37;4.80;;;8.80;99.90;;;;;;4978503;28;20310;-85
2023/05/01 03:22:32;;;;;;;7.53;4.33;;;8.80;99.90;;;;;;4977306;28;20368;-85
2023/05/01 03:24:58;;;;;;;10.87;5.57;;;8.70;99.90;;;;;;4977194;28;20818;-84
2023/05/01 03:27:24;;;;;;;8.27;5.00;;;8.70;99.90;;;;;;4976936;28;20781;-84
2023/05/01 03:29:49;;;;;;;8.17;5.07;;;8.70;99.90;;;;;;4977981;28;20313;-84
2023/05/01 03:32:16;;;;;;;8.87;5.07;;;8.70;99.90;;;;;;4976367;28;20061;-84
2023/05/01 03:34:43;;;;;;;11.37;4.77;;;8.70;99.90;;;;;;4977940;28;20058;-83
2023/05/01 03:37:09;;;;;;;10.80;4.80;;;8.70;99.90;;;;;;4961496;28;20294;-84
2023/05/01 03:39:35;;;;;;;7.80;4.73;;;8.70;99.90;;;;;;4961469;28;20309;-84
2023/05/01 03:42:01;;;;;;;8.83;4.63;;;8.70;99.90;;;;;;4977366;28;20124;-84
2023/05/01 03:44:27;;;;;;;10.53;5.47;;;8.60;99.90;;;;;;4960050;28;20282;-84
2023/05/01 03:46:53;;;;;;;9.27;4.70;;;8.70;99.90;;;;;;4976996;28;20061;-84
2023/05/01 03:49:19;;;;;;;11.47;4.70;;;8.70;99.90;;;;;;4976566;28;20039;-84
2023/05/01 03:51:45;;;;;;;10.03;4.80;;;8.60;99.90;;;;;;4977175;28;20467;-84
2023/05/01 03:54:11;;;;;;;11.37;5.60;;;8.60;99.90;;;;;;4977485;28;20290;-84
2023/05/01 03:56:37;;;;;;;10.63;5.30;;;8.70;99.90;;;;;;4976698;28;20039;-84
2023/05/01 03:59:03;;;;;;;8.70;4.60;;;8.70;99.90;;;;;;4976286;28;20042;-84
2023/05/01 04:01:29;;;;;;;10.17;5.03;;;8.70;99.90;;;;;;4978243;28;20336;-84
2023/05/01 04:03:54;;;;;;;8.97;5.07;;;8.70;99.90;;;;;;4976533;28;20458;-83
2023/05/01 04:06:21;;;;;;;7.60;4.57;;;8.70;99.90;;;;;;4961239;28;20047;-84
2023/05/01 04:08:47;;;;;;;9.10;5.30;;;8.70;99.90;;;;;;4977207;28;20062;-84
2023/05/01 04:11:12;;;;;;;9.20;4.83;;;8.70;99.90;;;;;;4977349;28;20290;-84
2023/05/01 04:13:38;;;;;;;8.13;4.77;;;8.70;99.90;;;;;;4976364;28;20054;-84
2023/05/01 04:16:05;;;;;;;14.33;5.30;;;8.70;99.90;;;;;;4977344;28;20059;-84
2023/05/01 04:18:30;;;;;;;10.60;4.93;;;8.70;99.90;;;;;;4975626;28;20065;-85
2023/05/01 04:20:56;;;;;;;11.53;5.10;;;8.70;99.90;;;;;;4975293;28;20286;-84
2023/05/01 04:23:22;;;;;;;10.77;5.93;;;8.70;99.90;;;;;;4976851;28;20120;-84
2023/05/01 04:25:47;;;;;;;14.90;5.47;;;8.70;99.90;;;;;;4977079;28;20046;-84
2023/05/01 04:28:13;;;;;;;9.00;4.93;;;8.70;99.90;;;;;;4977608;28;20046;-84
2023/05/01 04:30:39;;;;;;;11.00;4.90;;;8.70;99.90;;;;;;4975912;28;20377;-84
2023/05/01 04:33:10;;;;;;;7.93;4.13;;;8.70;99.90;;;;;;4975434;28;20059;-85
2023/05/01 04:35:39;;;;;;;11.53;5.30;;;8.70;99.90;;;;;;4977280;28;20090;-84
2023/05/01 04:38:06;;;;;;;9.93;4.57;;;8.80;99.90;;;;;;4975886;28;20321;-85
2023/05/01 04:40:32;;;;;;;9.87;4.80;;;8.80;99.90;;;;;;4976355;28;20317;-85
2023/05/01 04:42:57;;;;;;;10.30;4.97;;;8.80;99.90;;;;;;4976811;28;20278;-85
2023/05/01 04:45:23;;;;;;;8.53;4.40;;;8.80;99.90;;;;;;4976584;28;20046;-85
2023/05/01 04:47:49;;;;;;;7.63;4.97;;;8.90;99.90;;;;;;4976642;28;20441;-85
2023/05/01 04:50:15;;;;;;;8.67;4.77;;;8.90;99.90;;;;;;4975627;28;20054;-85
2023/05/01 04:52:40;;;;;;;9.07;4.53;;;8.90;99.90;;;;;;4944256;28;20126;-85
2023/05/01 04:55:08;;;;;;;9.53;5.10;;;8.90;99.90;;;;;;4975539;28;20043;-85
2023/05/01 04:57:34;;;;;;;11.00;5.80;;;8.90;99.90;;;;;;4976553;28;20055;-85
2023/05/01 05:00:00;;;;;;;8.47;4.60;;;9.00;99.90;;;;;;4977154;28;20309;-86
2023/05/01 05:02:26;;;;;;;8.73;4.50;;;9.10;99.90;;;;;;4975497;28;20704;-85
2023/05/01 05:04:55;;;;;;;9.27;4.90;;;9.10;99.90;;;;;;4976345;28;20282;-86
2023/05/01 05:07:21;;;;;;;11.27;5.20;;;9.10;99.90;;;;;;4975441;28;20047;-85
2023/05/01 05:09:47;;;;;;;10.07;5.03;;;9.20;99.90;;;;;;4975347;28;20758;-86
2023/05/01 05:12:15;;;;;;;10.87;4.90;;;9.20;99.90;;;;;;4976098;28;20310;-86
2023/05/01 05:14:42;;;;;;;9.77;5.33;;;9.20;99.90;;;;;;4974977;28;20052;-86
2023/05/01 05:17:08;;;;;;;12.10;4.70;;;9.20;99.90;;;;;;4975048;28;20297;-80
2023/05/01 05:19:34;;;;;;;10.53;5.03;;;9.20;99.90;;;;;;4976560;28;20302;-85
2023/05/01 05:22:03;;;;;;;7.87;4.93;;;9.30;99.90;;;;;;4975319;28;20287;-86
2023/05/01 05:24:29;;;;;;;10.43;4.90;;;9.40;99.90;;;;;;4976054;28;20193;-85
2023/05/01 05:26:55;;;;;;;10.57;4.80;;;9.40;99.90;;;;;;4976247;28;20282;-86
2023/05/01 05:29:21;;;;;;;10.00;5.10;;;9.40;99.90;;;;;;4974804;28;20289;-81
2023/05/01 05:31:46;;;;;;;12.67;5.10;;;9.50;99.90;;;;;;4976113;28;20059;-78
2023/05/01 05:34:12;;;;;;;10.83;4.97;;;9.60;99.90;;;;;;4975784;28;20186;-77
2023/05/01 05:36:38;;;;;;;11.60;5.00;;;9.70;99.90;;;;;;4974664;28;20049;-77
2023/05/01 05:39:04;;;;;;;13.17;5.50;;;9.70;99.90;;;;;;4975653;28;20298;-79
2023/05/01 05:41:30;;;;;;;10.70;4.67;;;9.80;99.90;;;;;;4975763;28;20093;-78
2023/05/01 05:43:55;;;;;;;10.10;4.90;;;9.90;99.90;;;;;;4974450;28;20529;-79
2023/05/01 05:46:21;;;;;;;9.87;5.30;;;10.10;99.90;;;;;;4976148;28;20054;-79
2023/05/01 05:48:47;;;;;;;11.23;5.37;;;10.30;99.90;;;;;;4975164;28;20097;-79
2023/05/01 05:51:13;;;;;;;8.47;4.60;;;10.80;99.90;;;;;;4976327;28;20055;-78
2023/05/01 05:53:38;;;;;;;10.37;5.47;;;11.30;99.90;;;;;;4975235;28;20058;-79
2023/05/01 05:56:04;;;;;;;8.37;4.70;;;11.80;99.90;;;;;;4975156;28;20050;-73
2023/05/01 05:58:30;;;;;;;11.87;5.07;;;12.30;99.90;;;;;;4975215;28;20106;-72
2023/05/01 06:00:56;;;;;;;7.80;4.53;;;12.80;99.90;;;;;;4975261;28;20290;-83
2023/05/01 06:03:22;;;;;;;9.50;4.97;;;13.20;99.90;;;;;;4975333;28;20101;-80
2023/05/01 06:05:48;;;;;;;10.00;4.67;;;13.30;99.90;;;;;;4975235;28;20121;-78
2023/05/01 06:08:14;;;;;;;11.10;5.10;;;13.50;99.90;;;;;;4975476;28;20055;-83
2023/05/01 06:10:42;;;;;;;7.83;4.60;;;13.50;99.90;;;;;;4975274;28;20046;-83
2023/05/01 06:13:09;;;;;;;15.83;5.47;;;13.70;99.90;;;;;;4975683;28;20710;-80
2023/05/01 06:15:38;;;;;;;10.90;5.00;;;13.70;99.90;;;;;;4975081;28;20282;-82
2023/05/01 06:18:03;;;;;;;9.80;5.10;;;13.70;99.90;;;;;;4975247;28;20289;-81
2023/05/01 06:20:30;;;;;;;8.87;5.17;;;13.60;99.90;;;;;;4973652;28;20662;-80
2023/05/01 06:22:56;;;;;;;8.70;5.07;;;13.70;99.90;;;;;;4975576;28;20043;-82
2023/05/01 06:25:22;;;;;;;8.77;5.00;;;13.80;99.90;;;;;;4974984;28;20308;-80
2023/05/01 06:27:49;;;;;;;7.43;4.67;;;14.20;99.90;;;;;;4975240;28;20185;-82
2023/05/01 06:30:15;;;;;;;10.53;5.07;;;14.60;99.90;;;;;;4973975;28;20687;-82
2023/05/01 06:32:44;;;;;;;11.40;4.47;;;15.00;99.90;;;;;;4973177;28;20330;-78
2023/05/01 06:35:10;;;;;;;8.70;4.57;;;15.40;99.90;;;;;;4974663;28;20571;-77
2023/05/01 06:37:37;;;;;;;7.47;4.47;;;15.90;99.90;;;;;;4974685;28;20295;-77
2023/05/01 06:40:07;;;;;;;8.57;4.50;;;16.50;99.90;;;;;;4973325;28;20050;-77
2023/05/01 06:42:32;;;;;;;8.17;4.63;;;17.00;98.70;;;;;;4974307;28;20337;-77
2023/05/01 06:44:58;;;;;;;10.20;4.90;;;17.70;96.30;;;;;;4973999;28;20314;-77
2023/05/01 06:47:24;;;;;;;8.77;4.87;;;18.50;95.20;;;;;;4973633;28;20054;-81
2023/05/01 06:49:49;;;;;;;9.07;5.07;;;18.90;91.40;;;;;;4958338;28;20051;-85
2023/05/01 06:52:15;;;;;;;7.30;4.70;;;19.60;84.40;;;;;;4974485;28;20392;-81
2023/05/01 06:54:41;;;;;;;7.00;4.33;;;20.20;80.30;;;;;;4974554;28;20134;-79
2023/05/01 06:57:06;;;;;;;6.87;4.17;;;20.40;67.20;;;;;;4974701;28;20050;-89
2023/05/01 06:59:32;;;;;;;8.77;5.00;;;20.90;66.70;;;;;;4973610;28;20050;-83
2023/05/01 07:01:58;;;;;;;9.87;4.47;;;21.20;63.00;;;;;;4975011;28;20051;-84
2023/05/01 07:04:24;;;;;;;8.83;4.33;;;21.40;58.90;;;;;;4974840;28;20497;-85
2023/05/01 07:06:50;;;;;;;7.13;4.07;;;21.40;59.00;;;;;;4973472;28;20086;-85
2023/05/01 07:09:16;;;;;;;10.13;4.47;;;21.50;56.80;;;;;;4974596;28;20487;-85
2023/05/01 07:11:41;;;;;;;9.67;4.63;;;21.80;57.10;;;;;;4974904;28;20086;-85
2023/05/01 07:14:07;;;;;;;7.40;3.90;;;21.90;55.90;;;;;;4974847;28;20108;-88
2023/05/01 07:16:33;;;;;;;8.33;4.07;;;21.80;54.60;;;;;;4974391;28;20069;-83
2023/05/01 07:18:59;;;;;;;8.73;4.43;;;21.60;53.80;;;;;;4957090;28;20471;-89
2023/05/01 07:21:25;;;;;;;9.13;4.17;;;21.80;53.80;;;;;;4974665;28;20102;-82
2023/05/01 07:23:50;;;;;;;7.67;3.97;;;22.10;53.70;;;;;;4974694;28;20048;-83
2023/05/01 07:26:16;;;;;;;7.63;4.00;;;22.50;52.90;;;;;;4974191;28;20513;-82
2023/05/01 07:28:42;;;;;;;6.30;3.73;;;22.80;50.40;;;;;;4973991;28;20047;-78
2023/05/01 07:31:09;;;;;;;8.80;4.30;;;23.10;49.90;;;;;;4973674;28;20043;-84
2023/05/01 07:33:35;;;;;;;8.53;3.93;;;23.10;49.70;;;;;;4974263;28;20124;-85
2023/05/01 07:36:00;;;;;;;8.37;3.60;;;23.50;48.70;;;;;;4974200;28;20102;-84
2023/05/01 07:38:26;;;;;;;7.70;3.90;;;23.90;48.40;;;;;;4974061;28;20121;-84
2023/05/01 07:40:52;;;;;;;7.50;3.80;;;24.30;47.50;;;;;;4973395;28;20074;-82
2023/05/01 07:43:18;;;;;;;7.13;3.60;;;24.50;47.00;;;;;;4974299;28;20137;-83
2023/05/01 07:45:57;;;;;;;8.20;3.93;;;24.90;46.80;;;;;;4974135;28;20055;-81
2023/05/01 07:48:24;;;;;;;5.80;3.23;;;25.20;43.30;;;;;;4974822;28;20054;-86
2023/05/01 07:50:50;;;;;;;11.27;4.30;;;25.50;45.50;;;;;;4974182;28;20504;-85
2023/05/01 07:53:15;;;;;;;7.20;4.10;;;25.50;44.00;;;;;;4974142;28;20046;-83
2023/05/01 07:55:41;;;;;;;9.10;3.93;;;25.60;44.10;;;;;;4975306;28;20138;-84
2023/05/01 07:58:07;;;;;;;8.10;3.80;;;25.80;43.80;;;;;;4976948;28;20054;-84
2023/05/01 08:00:33;;;;;;;8.23;3.87;;;25.80;43.10;;;;;;4976282;28;20047;-85
2023/05/01 08:02:59;;;;;;;7.13;3.63;;;25.60;42.40;;;;;;4977504;28;20054;-85
2023/05/01 08:05:25;;;;;;;7.43;3.40;;;24.80;42.90;;;;;;4960729;28;20057;-85
2023/05/01 08:07:50;;;;;;;8.17;3.50;;;24.00;43.00;;;;;;4976956;28;20043;-82
2023/05/01 08:10:16;;;;;;;9.00;3.93;;;23.40;43.80;;;;;;4977445;28;20089;-82
2023/05/01 08:12:42;;;;;;;6.50;2.97;;;22.80;44.70;;;;;;4977909;28;20073;-86
2023/05/01 08:15:08;;;;;;;6.73;2.90;;;22.30;45.00;;;;;;4977408;28;20055;-85
2023/05/01 08:17:35;;;;;;;7.00;3.47;;;21.90;45.60;;;;;;4978016;28;20471;-85
2023/05/01 08:20:01;;;;;;;6.20;3.00;;;21.40;45.90;;;;;;4981319;28;20050;-83
2023/05/01 08:22:27;;;;;;;8.63;2.90;;;21.30;46.20;;;;;;4978845;28;20238;-86
2023/05/01 08:24:52;;;;;;;5.97;3.13;;;21.00;46.20;;;;;;4978219;28;20563;-83
2023/05/01 08:27:18;;;;;;;8.40;3.00;;;20.90;47.10;;;;;;4977091;28;20046;-86
2023/05/01 08:29:44;;;;;;;7.87;3.37;;;20.90;47.60;;;;;;4976917;28;20043;-75
2023/05/01 08:32:10;;;;;;;6.83;2.90;;;20.80;47.90;;;;;;4976290;28;20061;-81
2023/05/01 08:34:36;;;;;;;9.60;4.07;;;20.80;48.20;;;;;;4977178;28;20399;-83
2023/05/01 08:37:02;;;;;;;6.53;3.23;;;20.60;48.20;;;;;;4976607;28;20047;-83
2023/05/01 08:39:27;;;;;;;6.73;2.70;;;20.40;48.70;;;;;;4976768;28;20039;-83
2023/05/01 08:41:54;;;;;;;5.30;2.53;;;20.10;49.00;;;;;;4976181;28;20086;-85
2023/05/01 08:44:20;;;;;;;7.13;2.73;;;19.60;49.50;;;;;;4976752;28;20075;-84
2023/05/01 08:47:04;;;;;;;11.67;3.57;;;19.40;50.00;;;;;;4976588;28;20391;-83
2023/05/01 08:49:33;;;;;;;6.67;3.23;;;19.40;50.10;;;;;;4977284;28;20046;-84
2023/05/01 08:52:01;;;;;;;7.10;2.77;;;19.50;50.40;;;;;;4975530;28;20063;-85
2023/05/01 08:54:28;;;;;;;5.40;2.37;;;19.40;50.20;;;;;;4976492;28;20094;-85
2023/05/01 08:56:55;;;;;;;6.73;2.73;;;19.40;50.00;;;;;;4976438;28;20050;-84
2023/05/01 08:59:24;;;;;;;8.20;3.07;;;19.40;50.20;;;;;;4976456;28;20051;-81
2023/05/01 09:01:51;;;;;;;9.57;2.80;;;19.50;50.40;;;;;;4975630;28;20078;-82
2023/05/01 09:04:17;;;;;;;6.73;2.73;;;19.40;50.00;;;;;;4975096;28;20505;-85
2023/05/01 09:06:43;;;;;;;8.60;2.93;;;19.50;50.20;;;;;;4975750;28;20047;-85
2023/05/01 09:09:09;;;;;;;8.47;3.20;;;19.50;50.50;;;;;;4975745;28;20063;-85
2023/05/01 09:11:35;;;;;;;9.77;2.60;;;19.50;50.60;;;;;;4959749;28;20415;-84
2023/05/01 09:14:07;;;;;;;10.53;2.90;;;19.40;50.10;;;;;;4976142;28;20054;-85
2023/05/01 09:16:33;;;;;;;10.10;3.53;;;19.30;50.10;;;;;;4974913;28;20058;-85
2023/05/01 09:18:59;;;;;;;8.40;2.87;;;19.30;50.70;;;;;;4974860;28;20051;-86
2023/05/01 09:21:28;;;;;;;5.50;2.57;;;19.30;50.50;;;;;;4975906;28;20126;-85
2023/05/01 09:23:55;;;;;;;9.60;3.57;;;19.30;50.90;;;;;;4974394;28;20495;-86
2023/05/01 09:26:20;;;;;;;5.33;2.43;;;19.20;51.20;;;;;;4975691;28;20113;-82
2023/05/01 09:28:47;;;;;;;5.87;2.27;;;19.20;51.70;;;;;;4975649;28;20054;-85
2023/05/01 09:31:33;;;;;;;4.77;1.80;;;19.10;51.40;;;;;;4975413;28;20090;-78
2023/05/01 09:34:02;;;;;;;5.97;2.20;;;19.10;51.30;;;;;;4976303;28;20105;-81
2023/05/01 09:36:30;;;;;;;6.83;2.87;;;18.90;51.60;;;;;;4974634;28;20066;-77
2023/05/01 09:38:56;;;;;;;7.27;3.00;;;18.90;52.30;;;;;;4976242;28;20126;-85
2023/05/01 09:41:23;;;;;;;8.23;2.93;;;18.90;52.90;;;;;;4975303;28;20065;-84
2023/05/01 09:43:50;;;;;;;5.63;2.70;;;19.00;53.30;;;;;;4975222;28;20455;-81
2023/05/01 09:46:16;;;;;;;7.13;2.50;;;19.00;52.90;;;;;;4975256;28;20384;-81
2023/05/01 09:48:55;;;;;;;4.53;2.33;;;19.00;53.20;;;;;;4974391;28;20051;-84
2023/05/01 09:51:28;;;;;;;6.23;2.30;;;19.00;53.00;;;;;;4974934;28;20050;-87
2023/05/01 09:54:02;;;;;;;6.47;2.10;;;19.00;53.40;;;;;;4974400;28;20089;-85
2023/05/01 09:56:32;;;;;;;8.35;3.05;;;19.00;53.30;;;;;;4975080;28;20082;-85
2023/05/01 09:59:17;;;;;;;6.10;2.40;;;18.90;53.30;;;;;;4975274;28;20078;-85
2023/05/01 10:01:45;;;;;;;8.43;2.92;;;18.90;54.30;;;;;;4974755;28;20113;-85
2023/05/01 10:04:13;;;;;;;6.50;2.70;;;18.90;53.80;;;;;;4975153;28;20050;-84
2023/05/01 10:06:40;;;;;;;7.23;3.17;;;18.90;54.00;;;;;;4958377;28;20106;-85
2023/05/01 10:09:15;;;;;;;5.63;2.60;;;18.90;54.40;;;;;;4958227;28;20426;-85
2023/05/01 10:11:56;;;;;;;6.40;2.87;;;18.80;54.50;;;;;;4974445;28;20055;-84
2023/05/01 10:14:27;;;;;;;6.13;2.63;;;18.80;54.70;;;;;;4958628;28;20101;-83
2023/05/01 10:16:53;;;;;;;7.03;2.47;;;18.60;55.30;;;;;;4973985;28;20495;-83
2023/05/01 10:19:19;;;;;;;5.67;2.80;;;18.60;56.10;;;;;;4973577;28;20078;-81
2023/05/01 10:21:45;;;;;;;8.97;2.97;;;18.60;56.90;;;;;;4975866;28;20055;-76
2023/05/01 10:24:11;;;;;;;7.30;3.17;;;18.60;56.20;;;;;;4974334;28;20502;-82
2023/05/01 10:26:37;;;;;;;8.47;2.83;;;18.60;56.30;;;;;;4957604;28;20054;-84
2023/05/01 10:29:03;;;;;;;5.37;2.33;;;18.60;56.60;;;;;;4958121;28;20121;-85
2023/05/01 10:31:31;;;;;;;7.17;2.60;;;18.60;56.30;;;;;;4974681;28;20094;-83
2023/05/01 10:33:59;;;;;;;5.37;2.40;;;18.60;56.50;;;;;;4975027;28;20086;-85
2023/05/01 10:36:36;;;;;;;5.53;2.30;;;18.60;56.40;;;;;;4974132;28;20394;-83
2023/05/01 10:39:02;;;;;;;5.67;2.10;;;18.60;56.50;;;;;;4975027;28;20126;-81
2023/05/01 10:42:00;;;;;;;6.40;2.47;;;18.50;56.60;;;;;;4973944;28;20065;-82
2023/05/01 10:44:27;;;;;;;3.80;2.10;;;18.50;56.20;;;;;;4973858;28;20105;-83
2023/05/01 10:46:53;;;;;;;5.57;2.33;;;18.50;57.20;;;;;;4974724;28;20113;-81
2023/05/01 10:49:19;;;;;;;5.40;2.10;;;18.50;57.30;;;;;;4974028;28;20065;-79
2023/05/01 10:52:02;;;;;;;6.87;2.67;;;18.50;57.40;;;;;;4974752;28;20518;-76
2023/05/01 10:54:32;;;;;;;4.60;2.20;;;18.60;57.60;;;;;;4974003;28;20395;-82
2023/05/01 10:57:00;;;;;;;6.00;2.07;;;18.60;57.60;;;;;;4974820;28;20054;-84
2023/05/01 10:59:27;;;;;;;7.43;2.50;;;18.70;58.10;;;;;;4974230;28;20043;-83
2023/05/01 11:01:53;;;;;;;6.27;2.00;;;18.80;58.10;;;;;;4974787;28;20054;-83
2023/05/01 11:04:25;;;;;;;6.23;2.10;;;18.80;58.10;;;;;;4974560;28;20105;-83
2023/05/01 11:07:09;;;;;;;5.27;1.90;;;18.80;58.20;;;;;;4974465;28;20094;-83
2023/05/01 11:09:40;;;;;;;5.30;1.80;;;19.00;58.80;;;;;;4974752;28;20125;-83
2023/05/01 11:12:07;;;;;;;5.60;1.97;;;19.10;58.20;;;;;;4974280;28;20070;-83
2023/05/01 11:14:52;;;;;;;6.63;2.43;;;19.20;57.90;;;;;;4974446;28;20053;-83
2023/05/01 11:17:42;;;;;;;4.70;1.88;;;19.20;56.90;;;;;;4975048;28;20083;-83
2023/05/01 11:20:31;;;;;;;6.73;2.00;;;19.30;57.00;;;;;;4974416;28;20054;-83
2023/05/01 11:22:58;;;;;;;4.00;1.90;;;19.40;56.10;;;;;;4973276;28;20061;-83
2023/05/01 11:25:29;;;;;;;6.27;2.13;;;19.40;56.90;;;;;;4958016;28;20055;-83
2023/05/01 11:28:00;;;;;;;5.03;1.80;;;19.30;56.20;;;;;;4973630;28;20055;-83
2023/05/01 11:30:36;;;;;;;6.10;2.60;;;19.20;57.20;;;;;;4975459;28;20058;-83
2023/05/01 11:33:03;;;;;;;6.73;2.40;;;19.20;57.40;;;;;;4977069;28;20483;-83
2023/05/01 11:35:29;;;;;;;7.00;2.63;;;19.10;57.20;;;;;;4978510;28;20495;-83
2023/05/01 11:37:55;;;;;;;6.87;2.83;;;19.20;57.40;;;;;;4976742;28;20085;-83
2023/05/01 11:40:21;;;;;;;6.33;3.00;;;19.20;57.70;;;;;;4977825;28;20086;-83
2023/05/01 11:42:48;;;;;;;6.10;2.50;;;19.20;57.20;;;;;;4978364;28;20050;-83
2023/05/01 11:45:14;;;;;;;6.47;2.37;;;19.20;57.30;;;;;;4977730;28;20101;-83
2023/05/01 11:47:40;;;;;;;7.17;2.37;;;19.20;57.20;;;;;;4976966;28;20129;-84
2023/05/01 11:50:10;;;;;;;4.47;1.90;;;19.20;57.60;;;;;;4977221;28;20468;-83
2023/05/01 11:52:48;;;;;;;5.90;2.40;;;19.30;57.90;;;;;;4978449;28;20113;-83
2023/05/01 11:55:15;;;;;;;6.50;2.97;;;19.30;57.90;;;;;;4977728;28;20134;-83
2023/05/01 11:57:48;;;;;;;7.43;3.00;;;19.30;57.80;;;;;;4976873;28;20073;-84
2023/05/01 12:00:24;;;;;;;5.90;2.50;;;19.30;57.50;;;;;;4976611;28;20051;-84
2023/05/01 12:02:57;;;;;;;5.03;2.93;;;19.30;58.20;;;;;;4977512;28;20125;-83
2023/05/01 12:05:24;;;;;;;8.27;3.00;;;19.30;57.70;;;;;;4977270;28;20423;-83
2023/05/01 12:07:50;;;;;;;7.10;3.23;;;19.30;57.60;;;;;;4976457;28;20046;-83
2023/05/01 12:10:17;;;;;;;5.83;2.50;;;19.30;57.70;;;;;;4977319;28;20042;-83
2023/05/01 12:12:43;;;;;;;5.73;2.80;;;19.30;57.80;;;;;;4976260;28;20057;-84
2023/05/01 12:15:09;;;;;;;7.90;2.50;;;19.30;58.00;;;;;;4976826;28;20101;-83
2023/05/01 12:17:36;;;;;;;4.63;2.47;;;19.20;58.40;;;;;;4976251;28;20475;-83
2023/05/01 12:20:03;;;;;;;5.70;2.80;;;19.10;59.20;;;;;;4977645;28;20139;-83
2023/05/01 12:22:29;;;;;;;5.17;2.40;;;19.00;59.60;;;;;;4977735;28;20055;-83
2023/05/01 12:24:55;;;;;;;10.77;3.10;;;18.90;60.10;;;;;;4976080;28;20121;-83
2023/05/01 12:27:21;;;;;;;7.83;2.80;;;18.80;60.70;;;;;;4960011;28;20055;-84
2023/05/01 12:29:47;;;;;;;7.03;3.00;;;18.70;61.30;;;;;;4976345;28;20521;-83
2023/05/01 12:32:16;;;;;;;5.37;2.90;;;18.60;62.00;;;;;;4976311;28;20137;-84
2023/05/01 12:34:42;;;;;;;6.77;2.67;;;18.50;62.40;;;;;;4977488;28;20063;-84
2023/05/01 12:37:09;;;;;;;5.73;2.80;;;18.40;63.60;;;;;;4977310;28;20118;-83
2023/05/01 12:39:43;;;;;;;6.40;3.07;;;18.40;64.50;;;;;;4959715;28;20047;-83
2023/05/01 12:42:14;;;;;;;6.78;3.13;;;18.30;65.50;;;;;;4974745;28;20055;-83
2023/05/01 12:44:41;;;;;;;8.87;2.90;;;18.20;65.00;;;;;;4976622;28;20090;-83
2023/05/01 12:47:08;;;;;;;6.03;3.00;;;18.20;66.10;;;;;;4976593;28;20055;-83
2023/05/01 12:49:35;;;;;;;6.90;3.30;;;18.20;67.30;;;;;;4976574;28;20043;-83
2023/05/01 12:52:03;;;;;;;6.60;3.40;;;18.10;68.30;;;;;;4975502;28;20141;-83